FD93 weather

Yellow River Airstrip
Holt, Florida, United States

Public forecast

Using degrees Fahrenheit for public forecast. Weather courtesy of forecast.io.

METAR (pilot weather report)

Closest report is Duke Field, 11.8 nm (21.8 km) E. Retrieved 2018/07/20 18:56 UTC (27 minutes ago):

KEGI 201856Z VRB04KT 10SM SCT029 SCT120 BKN200 31/23 A2995 RMK AO2A SLP141 T03130228 $

TAF (pilot weather forecast)

Closest forecast is Duke Field, 11.8 nm (21.8 km) E. Retrieved 2018/07/20 17:15 UTC (2 hours ago):

TAF KEGI 201700Z 2017/2123 02003KT 9999 BKN028 BKN200 QNH2994INS BECMG 2020/2021 31010KT 9999 VCTS BKN040CB BKN120 BKN200 QNH2992INS TEMPO 2021/2103 30020G30KT 8000 -TSRA BKN050CB BECMG 2104/2105 28003KT 9999 NSW FEW040 SCT200 QNH2990INS BECMG 2114/2115 24010KT 9999 SCT040 BKN120 BKN200 QNH2991INS BECMG 2117/2118 24010G15KT 9999 VCTS BKN030CB BKN120 BKN200 QNH2989INS TX34/2018Z TN21/2111Z